sensor_id;sensor_type;location;lat;lon;timestamp;P1;durP1;ratioP1;P2;durP2;ratioP2
2602;SDS011;1311;47.966;7.958;2023-06-22T00:01:15;8.67;;;7.80;;
2602;SDS011;1311;47.966;7.958;2023-06-22T00:03:42;9.10;;;7.10;;
2602;SDS011;1311;47.966;7.958;2023-06-22T00:06:09;8.10;;;7.30;;
2602;SDS011;1311;47.966;7.958;2023-06-22T00:08:35;9.77;;;8.40;;
2602;SDS011;1311;47.966;7.958;2023-06-22T00:11:02;10.10;;;7.83;;
2602;SDS011;1311;47.966;7.958;2023-06-22T00:13:30;10.47;;;8.13;;
2602;SDS011;1311;47.966;7.958;2023-06-22T00:15:57;9.57;;;7.40;;
2602;SDS011;1311;47.966;7.958;2023-06-22T00:18:24;10.03;;;7.73;;
2602;SDS011;1311;47.966;7.958;2023-06-22T00:20:53;10.13;;;7.70;;
2602;SDS011;1311;47.966;7.958;2023-06-22T00:23:22;9.07;;;7.43;;
2602;SDS011;1311;47.966;7.958;2023-06-22T00:25:50;11.20;;;7.73;;
2602;SDS011;1311;47.966;7.958;2023-06-22T00:28:16;11.27;;;8.40;;
2602;SDS011;1311;47.966;7.958;2023-06-22T00:30:45;11.57;;;6.87;;
2602;SDS011;1311;47.966;7.958;2023-06-22T00:33:12;8.07;;;6.63;;
2602;SDS011;1311;47.966;7.958;2023-06-22T00:35:39;7.23;;;6.30;;
2602;SDS011;1311;47.966;7.958;2023-06-22T00:38:06;8.10;;;6.87;;
2602;SDS011;1311;47.966;7.958;2023-06-22T00:40:33;10.10;;;6.83;;
2602;SDS011;1311;47.966;7.958;2023-06-22T00:43:00;10.10;;;6.23;;
2602;SDS011;1311;47.966;7.958;2023-06-22T00:45:27;11.57;;;6.57;;
2602;SDS011;1311;47.966;7.958;2023-06-22T00:47:56;7.80;;;5.50;;
2602;SDS011;1311;47.966;7.958;2023-06-22T00:50:24;8.70;;;5.87;;
2602;SDS011;1311;47.966;7.958;2023-06-22T00:52:52;7.40;;;5.10;;
2602;SDS011;1311;47.966;7.958;2023-06-22T00:55:21;6.87;;;5.13;;
2602;SDS011;1311;47.966;7.958;2023-06-22T00:57:49;12.80;;;6.30;;
2602;SDS011;1311;47.966;7.958;2023-06-22T01:00:20;9.70;;;7.40;;
2602;SDS011;1311;47.966;7.958;2023-06-22T01:02:50;12.00;;;7.90;;
2602;SDS011;1311;47.966;7.958;2023-06-22T01:05:19;9.87;;;7.20;;
2602;SDS011;1311;47.966;7.958;2023-06-22T01:07:50;9.10;;;7.40;;
2602;SDS011;1311;47.966;7.958;2023-06-22T01:10:27;11.00;;;8.43;;
2602;SDS011;1311;47.966;7.958;2023-06-22T01:13:02;9.70;;;7.50;;
2602;SDS011;1311;47.966;7.958;2023-06-22T01:15:35;11.90;;;8.20;;
2602;SDS011;1311;47.966;7.958;2023-06-22T01:18:05;9.47;;;7.63;;
2602;SDS011;1311;47.966;7.958;2023-06-22T01:20:36;11.87;;;8.50;;
2602;SDS011;1311;47.966;7.958;2023-06-22T01:23:07;12.83;;;7.67;;
2602;SDS011;1311;47.966;7.958;2023-06-22T01:25:41;10.73;;;7.47;;
2602;SDS011;1311;47.966;7.958;2023-06-22T01:28:18;8.90;;;6.80;;
2602;SDS011;1311;47.966;7.958;2023-06-22T01:30:51;10.33;;;7.93;;
2602;SDS011;1311;47.966;7.958;2023-06-22T01:33:30;11.87;;;6.90;;
2602;SDS011;1311;47.966;7.958;2023-06-22T01:35:59;10.83;;;7.23;;
2602;SDS011;1311;47.966;7.958;2023-06-22T01:38:27;9.40;;;6.40;;
2602;SDS011;1311;47.966;7.958;2023-06-22T01:40:55;10.50;;;6.60;;
2602;SDS011;1311;47.966;7.958;2023-06-22T01:43:24;10.73;;;7.13;;
2602;SDS011;1311;47.966;7.958;2023-06-22T01:45:54;8.67;;;6.30;;
2602;SDS011;1311;47.966;7.958;2023-06-22T01:48:22;10.00;;;6.07;;
2602;SDS011;1311;47.966;7.958;2023-06-22T01:50:51;8.50;;;6.00;;
2602;SDS011;1311;47.966;7.958;2023-06-22T01:53:18;11.30;;;7.30;;
2602;SDS011;1311;47.966;7.958;2023-06-22T01:55:46;9.80;;;6.80;;
2602;SDS011;1311;47.966;7.958;2023-06-22T01:58:13;10.53;;;6.70;;
2602;SDS011;1311;47.966;7.958;2023-06-22T02:00:40;9.40;;;7.70;;
2602;SDS011;1311;47.966;7.958;2023-06-22T02:03:14;8.63;;;6.43;;
2602;SDS011;1311;47.966;7.958;2023-06-22T02:05:46;10.83;;;6.47;;
2602;SDS011;1311;47.966;7.958;2023-06-22T02:08:16;9.07;;;5.50;;
2602;SDS011;1311;47.966;7.958;2023-06-22T02:10:46;11.40;;;6.90;;
2602;SDS011;1311;47.966;7.958;2023-06-22T02:13:14;7.80;;;6.20;;
2602;SDS011;1311;47.966;7.958;2023-06-22T02:15:42;9.77;;;6.90;;
2602;SDS011;1311;47.966;7.958;2023-06-22T02:18:10;9.20;;;6.50;;
2602;SDS011;1311;47.966;7.958;2023-06-22T02:20:38;10.30;;;7.70;;
2602;SDS011;1311;47.966;7.958;2023-06-22T02:23:06;10.47;;;7.20;;
2602;SDS011;1311;47.966;7.958;2023-06-22T02:25:33;10.87;;;6.80;;
2602;SDS011;1311;47.966;7.958;2023-06-22T02:28:00;14.40;;;8.10;;
2602;SDS011;1311;47.966;7.958;2023-06-22T02:30:27;11.80;;;7.50;;
2602;SDS011;1311;47.966;7.958;2023-06-22T02:32:53;10.97;;;7.70;;
2602;SDS011;1311;47.966;7.958;2023-06-22T02:35:23;9.50;;;7.60;;
2602;SDS011;1311;47.966;7.958;2023-06-22T02:37:52;12.97;;;6.60;;
2602;SDS011;1311;47.966;7.958;2023-06-22T02:40:19;8.77;;;7.07;;
2602;SDS011;1311;47.966;7.958;2023-06-22T02:42:46;9.10;;;7.00;;
2602;SDS011;1311;47.966;7.958;2023-06-22T02:45:12;8.53;;;6.90;;
2602;SDS011;1311;47.966;7.958;2023-06-22T02:47:39;8.00;;;7.10;;
2602;SDS011;1311;47.966;7.958;2023-06-22T02:50:06;11.07;;;7.90;;
2602;SDS011;1311;47.966;7.958;2023-06-22T02:52:34;8.90;;;6.90;;
2602;SDS011;1311;47.966;7.958;2023-06-22T02:55:02;6.73;;;6.13;;
2602;SDS011;1311;47.966;7.958;2023-06-22T02:57:29;12.97;;;7.03;;
2602;SDS011;1311;47.966;7.958;2023-06-22T02:59:56;10.50;;;7.13;;
2602;SDS011;1311;47.966;7.958;2023-06-22T03:02:22;12.90;;;7.53;;
2602;SDS011;1311;47.966;7.958;2023-06-22T03:04:51;11.13;;;7.27;;
2602;SDS011;1311;47.966;7.958;2023-06-22T03:07:18;8.53;;;6.70;;
2602;SDS011;1311;47.966;7.958;2023-06-22T03:09:45;10.53;;;6.30;;
2602;SDS011;1311;47.966;7.958;2023-06-22T03:12:14;11.50;;;7.60;;
2602;SDS011;1311;47.966;7.958;2023-06-22T03:14:40;11.23;;;6.93;;
2602;SDS011;1311;47.966;7.958;2023-06-22T03:17:07;10.20;;;6.20;;
2602;SDS011;1311;47.966;7.958;2023-06-22T03:19:34;7.60;;;5.50;;
2602;SDS011;1311;47.966;7.958;2023-06-22T03:22:00;8.27;;;6.00;;
2602;SDS011;1311;47.966;7.958;2023-06-22T03:24:27;8.27;;;6.30;;
2602;SDS011;1311;47.966;7.958;2023-06-22T03:26:54;10.53;;;6.67;;
2602;SDS011;1311;47.966;7.958;2023-06-22T03:29:23;9.10;;;6.07;;
2602;SDS011;1311;47.966;7.958;2023-06-22T03:31:50;11.80;;;7.20;;
2602;SDS011;1311;47.966;7.958;2023-06-22T03:34:17;11.13;;;7.00;;
2602;SDS011;1311;47.966;7.958;2023-06-22T03:36:44;8.53;;;6.13;;
2602;SDS011;1311;47.966;7.958;2023-06-22T03:39:11;10.60;;;7.93;;
2602;SDS011;1311;47.966;7.958;2023-06-22T03:41:38;6.50;;;5.90;;
2602;SDS011;1311;47.966;7.958;2023-06-22T03:44:04;7.20;;;6.43;;
2602;SDS011;1311;47.966;7.958;2023-06-22T03:46:33;11.07;;;6.60;;
2602;SDS011;1311;47.966;7.958;2023-06-22T03:48:59;7.27;;;6.10;;
2602;SDS011;1311;47.966;7.958;2023-06-22T03:51:28;8.83;;;6.37;;
2602;SDS011;1311;47.966;7.958;2023-06-22T03:53:55;10.17;;;6.50;;
2602;SDS011;1311;47.966;7.958;2023-06-22T03:56:21;7.90;;;6.43;;
2602;SDS011;1311;47.966;7.958;2023-06-22T03:58:48;9.60;;;5.97;;
2602;SDS011;1311;47.966;7.958;2023-06-22T04:01:15;9.23;;;5.80;;
2602;SDS011;1311;47.966;7.958;2023-06-22T04:03:44;8.43;;;5.83;;
2602;SDS011;1311;47.966;7.958;2023-06-22T04:06:13;5.67;;;5.17;;
2602;SDS011;1311;47.966;7.958;2023-06-22T04:08:39;6.53;;;5.13;;
2602;SDS011;1311;47.966;7.958;2023-06-22T04:11:07;7.73;;;5.03;;
2602;SDS011;1311;47.966;7.958;2023-06-22T04:13:33;12.20;;;6.93;;
2602;SDS011;1311;47.966;7.958;2023-06-22T04:16:00;8.57;;;5.70;;
2602;SDS011;1311;47.966;7.958;2023-06-22T04:18:27;7.93;;;6.20;;
2602;SDS011;1311;47.966;7.958;2023-06-22T04:20:55;7.53;;;6.30;;
2602;SDS011;1311;47.966;7.958;2023-06-22T04:23:22;9.07;;;6.20;;
2602;SDS011;1311;47.966;7.958;2023-06-22T04:25:48;10.33;;;6.27;;
2602;SDS011;1311;47.966;7.958;2023-06-22T04:28:15;10.03;;;6.90;;
2602;SDS011;1311;47.966;7.958;2023-06-22T04:30:42;8.93;;;6.63;;
2602;SDS011;1311;47.966;7.958;2023-06-22T04:33:12;11.20;;;6.63;;
2602;SDS011;1311;47.966;7.958;2023-06-22T04:35:39;8.83;;;6.20;;
2602;SDS011;1311;47.966;7.958;2023-06-22T04:38:08;7.47;;;6.37;;
2602;SDS011;1311;47.966;7.958;2023-06-22T04:40:38;8.37;;;6.20;;
2602;SDS011;1311;47.966;7.958;2023-06-22T04:43:05;9.17;;;6.80;;
2602;SDS011;1311;47.966;7.958;2023-06-22T04:45:31;11.70;;;8.00;;
2602;SDS011;1311;47.966;7.958;2023-06-22T04:48:00;10.57;;;8.13;;
2602;SDS011;1311;47.966;7.958;2023-06-22T04:50:27;9.30;;;6.43;;
2602;SDS011;1311;47.966;7.958;2023-06-22T04:52:54;13.50;;;7.57;;
2602;SDS011;1311;47.966;7.958;2023-06-22T04:55:22;13.17;;;7.70;;
2602;SDS011;1311;47.966;7.958;2023-06-22T04:57:50;13.50;;;7.87;;
2602;SDS011;1311;47.966;7.958;2023-06-22T05:00:18;8.83;;;7.73;;
2602;SDS011;1311;47.966;7.958;2023-06-22T05:02:48;10.47;;;6.60;;
2602;SDS011;1311;47.966;7.958;2023-06-22T05:05:15;9.80;;;7.10;;
2602;SDS011;1311;47.966;7.958;2023-06-22T05:07:43;10.23;;;6.80;;
2602;SDS011;1311;47.966;7.958;2023-06-22T05:10:13;10.20;;;7.27;;
2602;SDS011;1311;47.966;7.958;2023-06-22T05:12:41;9.93;;;6.73;;
2602;SDS011;1311;47.966;7.958;2023-06-22T05:15:08;9.13;;;7.07;;
2602;SDS011;1311;47.966;7.958;2023-06-22T05:17:35;9.80;;;7.50;;
2602;SDS011;1311;47.966;7.958;2023-06-22T05:20:08;8.60;;;7.30;;
2602;SDS011;1311;47.966;7.958;2023-06-22T05:22:35;10.10;;;7.70;;
2602;SDS011;1311;47.966;7.958;2023-06-22T05:25:02;9.60;;;8.00;;
2602;SDS011;1311;47.966;7.958;2023-06-22T05:27:29;7.93;;;5.87;;
2602;SDS011;1311;47.966;7.958;2023-06-22T05:29:57;9.40;;;5.67;;
2602;SDS011;1311;47.966;7.958;2023-06-22T05:32:24;11.17;;;6.90;;
2602;SDS011;1311;47.966;7.958;2023-06-22T05:34:51;7.63;;;6.07;;
2602;SDS011;1311;47.966;7.958;2023-06-22T05:37:17;10.83;;;7.10;;
2602;SDS011;1311;47.966;7.958;2023-06-22T05:39:44;9.40;;;6.23;;
2602;SDS011;1311;47.966;7.958;2023-06-22T05:42:11;13.60;;;6.50;;
2602;SDS011;1311;47.966;7.958;2023-06-22T05:44:38;8.27;;;5.90;;
2602;SDS011;1311;47.966;7.958;2023-06-22T05:47:07;9.40;;;6.37;;
2602;SDS011;1311;47.966;7.958;2023-06-22T05:49:34;8.07;;;5.90;;
2602;SDS011;1311;47.966;7.958;2023-06-22T05:52:00;8.47;;;4.80;;
2602;SDS011;1311;47.966;7.958;2023-06-22T05:54:27;5.80;;;5.20;;
2602;SDS011;1311;47.966;7.958;2023-06-22T05:56:54;8.83;;;5.10;;
2602;SDS011;1311;47.966;7.958;2023-06-22T05:59:21;10.60;;;5.93;;
2602;SDS011;1311;47.966;7.958;2023-06-22T06:01:48;8.13;;;5.03;;
2602;SDS011;1311;47.966;7.958;2023-06-22T06:04:17;8.00;;;5.57;;
2602;SDS011;1311;47.966;7.958;2023-06-22T06:06:44;9.03;;;5.33;;
2602;SDS011;1311;47.966;7.958;2023-06-22T06:09:12;7.40;;;5.00;;
2602;SDS011;1311;47.966;7.958;2023-06-22T06:11:38;9.77;;;6.10;;
2602;SDS011;1311;47.966;7.958;2023-06-22T06:14:05;11.50;;;5.83;;
2602;SDS011;1311;47.966;7.958;2023-06-22T06:16:32;8.50;;;5.60;;
2602;SDS011;1311;47.966;7.958;2023-06-22T06:18:59;8.63;;;6.00;;
2602;SDS011;1311;47.966;7.958;2023-06-22T06:21:27;8.87;;;5.93;;
2602;SDS011;1311;47.966;7.958;2023-06-22T06:23:54;11.10;;;5.90;;
2602;SDS011;1311;47.966;7.958;2023-06-22T06:26:20;7.47;;;6.00;;
2602;SDS011;1311;47.966;7.958;2023-06-22T06:28:52;9.87;;;6.90;;
2602;SDS011;1311;47.966;7.958;2023-06-22T06:31:19;9.00;;;6.00;;
2602;SDS011;1311;47.966;7.958;2023-06-22T06:33:46;10.83;;;6.93;;
2602;SDS011;1311;47.966;7.958;2023-06-22T06:36:13;12.87;;;7.47;;
2602;SDS011;1311;47.966;7.958;2023-06-22T06:38:41;10.10;;;7.10;;
2602;SDS011;1311;47.966;7.958;2023-06-22T06:41:08;10.27;;;6.70;;
2602;SDS011;1311;47.966;7.958;2023-06-22T06:43:35;10.67;;;7.33;;
2602;SDS011;1311;47.966;7.958;2023-06-22T06:46:01;14.07;;;8.67;;
2602;SDS011;1311;47.966;7.958;2023-06-22T06:48:29;13.43;;;8.20;;
2602;SDS011;1311;47.966;7.958;2023-06-22T06:50:55;11.60;;;9.20;;
2602;SDS011;1311;47.966;7.958;2023-06-22T06:53:22;12.57;;;9.30;;
2602;SDS011;1311;47.966;7.958;2023-06-22T06:55:50;9.90;;;8.77;;
2602;SDS011;1311;47.966;7.958;2023-06-22T06:58:17;13.50;;;9.00;;
2602;SDS011;1311;47.966;7.958;2023-06-22T07:00:44;10.80;;;9.07;;
2602;SDS011;1311;47.966;7.958;2023-06-22T07:03:11;12.00;;;9.27;;
2602;SDS011;1311;47.966;7.958;2023-06-22T07:05:38;9.47;;;8.40;;
2602;SDS011;1311;47.966;7.958;2023-06-22T07:08:04;12.90;;;9.60;;
2602;SDS011;1311;47.966;7.958;2023-06-22T07:10:31;8.43;;;7.63;;
2602;SDS011;1311;47.966;7.958;2023-06-22T07:12:59;10.13;;;8.27;;
2602;SDS011;1311;47.966;7.958;2023-06-22T07:15:26;8.27;;;7.43;;
2602;SDS011;1311;47.966;7.958;2023-06-22T07:17:53;9.30;;;7.97;;
2602;SDS011;1311;47.966;7.958;2023-06-22T07:20:20;12.90;;;9.70;;
2602;SDS011;1311;47.966;7.958;2023-06-22T07:22:47;12.13;;;8.30;;
2602;SDS011;1311;47.966;7.958;2023-06-22T07:25:13;8.60;;;7.70;;
2602;SDS011;1311;47.966;7.958;2023-06-22T07:27:45;13.13;;;8.13;;
2602;SDS011;1311;47.966;7.958;2023-06-22T07:30:23;12.37;;;7.80;;
2602;SDS011;1311;47.966;7.958;2023-06-22T07:32:50;11.10;;;7.20;;
2602;SDS011;1311;47.966;7.958;2023-06-22T07:35:17;10.53;;;8.03;;
2602;SDS011;1311;47.966;7.958;2023-06-22T07:37:44;9.40;;;6.47;;
2602;SDS011;1311;47.966;7.958;2023-06-22T07:40:11;11.50;;;7.30;;
2602;SDS011;1311;47.966;7.958;2023-06-22T07:42:38;9.87;;;6.47;;
2602;SDS011;1311;47.966;7.958;2023-06-22T07:45:05;8.60;;;6.93;;
2602;SDS011;1311;47.966;7.958;2023-06-22T07:47:35;10.00;;;6.57;;
2602;SDS011;1311;47.966;7.958;2023-06-22T07:50:02;12.17;;;7.53;;
2602;SDS011;1311;47.966;7.958;2023-06-22T07:52:30;9.50;;;7.10;;
2602;SDS011;1311;47.966;7.958;2023-06-22T07:54:57;12.43;;;6.90;;
2602;SDS011;1311;47.966;7.958;2023-06-22T07:57:24;7.60;;;6.83;;
2602;SDS011;1311;47.966;7.958;2023-06-22T07:59:57;7.37;;;6.67;;
2602;SDS011;1311;47.966;7.958;2023-06-22T08:02:24;10.37;;;7.40;;
2602;SDS011;1311;47.966;7.958;2023-06-22T08:04:52;7.30;;;6.53;;
2602;SDS011;1311;47.966;7.958;2023-06-22T08:07:19;12.80;;;8.00;;
2602;SDS011;1311;47.966;7.958;2023-06-22T08:09:46;11.10;;;7.40;;
2602;SDS011;1311;47.966;7.958;2023-06-22T08:12:14;11.90;;;6.60;;
2602;SDS011;1311;47.966;7.958;2023-06-22T08:14:41;10.73;;;6.83;;
2602;SDS011;1311;47.966;7.958;2023-06-22T08:17:08;7.73;;;6.47;;
2602;SDS011;1311;47.966;7.958;2023-06-22T08:19:35;10.53;;;6.30;;
2602;SDS011;1311;47.966;7.958;2023-06-22T08:22:05;13.13;;;6.90;;
2602;SDS011;1311;47.966;7.958;2023-06-22T08:24:31;7.33;;;6.10;;
2602;SDS011;1311;47.966;7.958;2023-06-22T08:26:58;9.60;;;6.77;;
2602;SDS011;1311;47.966;7.958;2023-06-22T08:29:25;7.50;;;5.87;;
2602;SDS011;1311;47.966;7.958;2023-06-22T08:31:52;8.17;;;5.50;;
2602;SDS011;1311;47.966;7.958;2023-06-22T08:34:19;10.90;;;7.00;;
2602;SDS011;1311;47.966;7.958;2023-06-22T08:36:46;8.63;;;5.80;;
2602;SDS011;1311;47.966;7.958;2023-06-22T08:39:18;6.53;;;5.60;;
2602;SDS011;1311;47.966;7.958;2023-06-22T08:41:45;7.83;;;6.40;;
2602;SDS011;1311;47.966;7.958;2023-06-22T08:44:12;7.60;;;5.97;;
2602;SDS011;1311;47.966;7.958;2023-06-22T08:46:39;9.63;;;7.10;;
2602;SDS011;1311;47.966;7.958;2023-06-22T08:49:07;11.90;;;7.13;;
2602;SDS011;1311;47.966;7.958;2023-06-22T08:51:34;10.83;;;6.97;;
2602;SDS011;1311;47.966;7.958;2023-06-22T08:54:01;8.63;;;5.93;;
2602;SDS011;1311;47.966;7.958;2023-06-22T08:56:30;14.33;;;7.43;;
2602;SDS011;1311;47.966;7.958;2023-06-22T08:58:56;12.37;;;6.93;;
2602;SDS011;1311;47.966;7.958;2023-06-22T09:01:23;13.90;;;7.30;;
2602;SDS011;1311;47.966;7.958;2023-06-22T09:03:50;10.90;;;6.73;;
2602;SDS011;1311;47.966;7.958;2023-06-22T09:06:23;12.63;;;6.77;;
2602;SDS011;1311;47.966;7.958;2023-06-22T09:08:50;8.27;;;5.67;;
2602;SDS011;1311;47.966;7.958;2023-06-22T09:11:17;8.83;;;6.40;;
2602;SDS011;1311;47.966;7.958;2023-06-22T09:13:45;8.43;;;6.70;;
2602;SDS011;1311;47.966;7.958;2023-06-22T09:16:12;9.37;;;7.00;;
2602;SDS011;1311;47.966;7.958;2023-06-22T09:18:39;10.60;;;6.67;;
2602;SDS011;1311;47.966;7.958;2023-06-22T09:21:06;9.73;;;7.27;;
2602;SDS011;1311;47.966;7.958;2023-06-22T09:23:33;10.47;;;6.50;;
2602;SDS011;1311;47.966;7.958;2023-06-22T09:26:00;10.40;;;6.70;;
2602;SDS011;1311;47.966;7.958;2023-06-22T09:28:29;13.17;;;6.73;;
2602;SDS011;1311;47.966;7.958;2023-06-22T09:30:57;10.17;;;6.37;;
2602;SDS011;1311;47.966;7.958;2023-06-22T09:33:24;9.67;;;6.23;;
2602;SDS011;1311;47.966;7.958;2023-06-22T09:35:51;12.33;;;6.90;;
2602;SDS011;1311;47.966;7.958;2023-06-22T09:38:18;11.00;;;6.43;;
2602;SDS011;1311;47.966;7.958;2023-06-22T09:40:45;8.73;;;5.40;;
2602;SDS011;1311;47.966;7.958;2023-06-22T09:43:12;8.53;;;5.47;;
2602;SDS011;1311;47.966;7.958;2023-06-22T09:45:39;8.77;;;6.83;;
2602;SDS011;1311;47.966;7.958;2023-06-22T09:48:07;7.27;;;5.60;;
2602;SDS011;1311;47.966;7.958;2023-06-22T09:50:34;9.37;;;6.80;;
2602;SDS011;1311;47.966;7.958;2023-06-22T09:53:01;8.20;;;5.57;;
2602;SDS011;1311;47.966;7.958;2023-06-22T09:55:28;10.33;;;6.10;;
2602;SDS011;1311;47.966;7.958;2023-06-22T09:57:55;8.80;;;6.40;;
2602;SDS011;1311;47.966;7.958;2023-06-22T10:00:21;8.53;;;5.43;;
2602;SDS011;1311;47.966;7.958;2023-06-22T10:02:48;8.47;;;5.90;;
2602;SDS011;1311;47.966;7.958;2023-06-22T10:05:17;6.60;;;4.90;;
2602;SDS011;1311;47.966;7.958;2023-06-22T10:07:44;11.50;;;6.57;;
2602;SDS011;1311;47.966;7.958;2023-06-22T10:10:11;11.37;;;6.83;;
2602;SDS011;1311;47.966;7.958;2023-06-22T10:12:41;13.40;;;6.40;;
2602;SDS011;1311;47.966;7.958;2023-06-22T10:15:09;11.77;;;6.13;;
2602;SDS011;1311;47.966;7.958;2023-06-22T10:17:36;11.93;;;6.30;;
2602;SDS011;1311;47.966;7.958;2023-06-22T10:20:03;10.53;;;6.17;;
2602;SDS011;1311;47.966;7.958;2023-06-22T10:22:37;11.53;;;5.70;;
2602;SDS011;1311;47.966;7.958;2023-06-22T10:25:04;15.00;;;5.80;;
2602;SDS011;1311;47.966;7.958;2023-06-22T10:27:32;6.40;;;4.87;;
2602;SDS011;1311;47.966;7.958;2023-06-22T10:29:59;6.53;;;5.43;;
2602;SDS011;1311;47.966;7.958;2023-06-22T10:32:25;9.93;;;5.67;;
2602;SDS011;1311;47.966;7.958;2023-06-22T10:34:53;8.73;;;5.80;;
2602;SDS011;1311;47.966;7.958;2023-06-22T10:37:20;6.87;;;5.70;;
2602;SDS011;1311;47.966;7.958;2023-06-22T10:39:48;7.80;;;5.60;;
2602;SDS011;1311;47.966;7.958;2023-06-22T10:42:15;9.80;;;4.90;;
2602;SDS011;1311;47.966;7.958;2023-06-22T10:44:41;7.07;;;5.50;;
2602;SDS011;1311;47.966;7.958;2023-06-22T10:47:09;10.27;;;5.90;;
2602;SDS011;1311;47.966;7.958;2023-06-22T10:49:37;13.00;;;6.47;;
2602;SDS011;1311;47.966;7.958;2023-06-22T10:52:04;10.40;;;6.20;;
2602;SDS011;1311;47.966;7.958;2023-06-22T10:54:32;10.97;;;6.00;;
2602;SDS011;1311;47.966;7.958;2023-06-22T10:57:00;10.77;;;7.20;;
2602;SDS011;1311;47.966;7.958;2023-06-22T10:59:28;11.70;;;6.87;;
2602;SDS011;1311;47.966;7.958;2023-06-22T11:01:54;9.87;;;7.43;;
2602;SDS011;1311;47.966;7.958;2023-06-22T11:04:21;10.77;;;7.37;;
2602;SDS011;1311;47.966;7.958;2023-06-22T11:06:48;13.87;;;6.80;;
2602;SDS011;1311;47.966;7.958;2023-06-22T11:09:15;9.53;;;7.00;;
2602;SDS011;1311;47.966;7.958;2023-06-22T11:11:45;10.80;;;7.13;;
2602;SDS011;1311;47.966;7.958;2023-06-22T11:14:14;9.70;;;7.00;;
2602;SDS011;1311;47.966;7.958;2023-06-22T11:16:40;9.03;;;6.50;;
2602;SDS011;1311;47.966;7.958;2023-06-22T11:19:07;13.10;;;7.73;;
2602;SDS011;1311;47.966;7.958;2023-06-22T11:21:34;7.53;;;6.67;;
2602;SDS011;1311;47.966;7.958;2023-06-22T11:24:01;7.03;;;6.10;;
2602;SDS011;1311;47.966;7.958;2023-06-22T11:26:28;7.93;;;7.17;;
2602;SDS011;1311;47.966;7.958;2023-06-22T11:28:57;7.77;;;6.30;;
2602;SDS011;1311;47.966;7.958;2023-06-22T11:31:25;10.33;;;6.80;;
2602;SDS011;1311;47.966;7.958;2023-06-22T11:33:52;8.53;;;5.90;;
2602;SDS011;1311;47.966;7.958;2023-06-22T11:36:19;8.03;;;6.80;;
2602;SDS011;1311;47.966;7.958;2023-06-22T11:38:46;8.83;;;6.70;;
2602;SDS011;1311;47.966;7.958;2023-06-22T11:41:12;10.27;;;6.47;;
2602;SDS011;1311;47.966;7.958;2023-06-22T11:43:39;8.30;;;3.93;;
2602;SDS011;1311;47.966;7.958;2023-06-22T11:46:06;7.07;;;3.27;;
2602;SDS011;1311;47.966;7.958;2023-06-22T11:48:34;9.60;;;3.40;;
2602;SDS011;1311;47.966;7.958;2023-06-22T11:51:01;8.30;;;3.47;;
2602;SDS011;1311;47.966;7.958;2023-06-22T11:53:28;9.97;;;3.93;;
2602;SDS011;1311;47.966;7.958;2023-06-22T11:55:55;12.07;;;4.10;;
2602;SDS011;1311;47.966;7.958;2023-06-22T11:58:22;7.77;;;3.70;;
2602;SDS011;1311;47.966;7.958;2023-06-22T12:00:49;6.57;;;3.17;;
2602;SDS011;1311;47.966;7.958;2023-06-22T12:03:17;7.67;;;3.53;;
2602;SDS011;1311;47.966;7.958;2023-06-22T12:05:45;9.13;;;3.90;;
2602;SDS011;1311;47.966;7.958;2023-06-22T12:08:11;6.30;;;3.63;;
2602;SDS011;1311;47.966;7.958;2023-06-22T12:10:39;8.80;;;3.07;;
2602;SDS011;1311;47.966;7.958;2023-06-22T12:13:06;8.40;;;3.10;;
2602;SDS011;1311;47.966;7.958;2023-06-22T12:15:33;8.17;;;3.50;;
2602;SDS011;1311;47.966;7.958;2023-06-22T12:17:59;7.40;;;3.30;;
2602;SDS011;1311;47.966;7.958;2023-06-22T12:20:27;11.70;;;3.27;;
2602;SDS011;1311;47.966;7.958;2023-06-22T12:22:55;13.13;;;3.40;;
2602;SDS011;1311;47.966;7.958;2023-06-22T12:25:23;11.97;;;3.90;;
2602;SDS011;1311;47.966;7.958;2023-06-22T12:27:50;8.17;;;3.40;;
2602;SDS011;1311;47.966;7.958;2023-06-22T12:30:17;8.00;;;3.30;;
2602;SDS011;1311;47.966;7.958;2023-06-22T12:32:44;7.30;;;3.40;;
2602;SDS011;1311;47.966;7.958;2023-06-22T12:35:10;8.43;;;3.63;;
2602;SDS011;1311;47.966;7.958;2023-06-22T12:37:39;9.90;;;4.80;;
2602;SDS011;1311;47.966;7.958;2023-06-22T12:40:08;8.57;;;5.43;;
2602;SDS011;1311;47.966;7.958;2023-06-22T12:42:35;15.77;;;6.83;;
2602;SDS011;1311;47.966;7.958;2023-06-22T12:45:03;11.27;;;6.87;;
2602;SDS011;1311;47.966;7.958;2023-06-22T12:47:30;14.17;;;7.50;;
2602;SDS011;1311;47.966;7.958;2023-06-22T12:49:57;11.47;;;6.50;;
2602;SDS011;1311;47.966;7.958;2023-06-22T12:52:24;8.20;;;6.10;;
2602;SDS011;1311;47.966;7.958;2023-06-22T12:54:50;9.10;;;6.17;;
2602;SDS011;1311;47.966;7.958;2023-06-22T12:57:19;11.43;;;6.63;;
2602;SDS011;1311;47.966;7.958;2023-06-22T12:59:46;12.97;;;6.90;;
2602;SDS011;1311;47.966;7.958;2023-06-22T13:02:12;10.93;;;6.70;;
2602;SDS011;1311;47.966;7.958;2023-06-22T13:04:39;8.40;;;5.83;;
2602;SDS011;1311;47.966;7.958;2023-06-22T13:07:06;9.07;;;5.93;;
2602;SDS011;1311;47.966;7.958;2023-06-22T13:09:33;10.10;;;5.73;;
2602;SDS011;1311;47.966;7.958;2023-06-22T13:12:02;8.03;;;5.93;;
2602;SDS011;1311;47.966;7.958;2023-06-22T13:14:30;17.67;;;6.70;;
2602;SDS011;1311;47.966;7.958;2023-06-22T13:16:57;9.13;;;5.63;;
2602;SDS011;1311;47.966;7.958;2023-06-22T13:19:23;8.53;;;5.80;;
2602;SDS011;1311;47.966;7.958;2023-06-22T13:21:51;11.90;;;6.17;;
2602;SDS011;1311;47.966;7.958;2023-06-22T13:24:17;12.70;;;6.30;;
2602;SDS011;1311;47.966;7.958;2023-06-22T13:26:44;16.47;;;7.10;;
2602;SDS011;1311;47.966;7.958;2023-06-22T13:29:11;10.53;;;5.87;;
2602;SDS011;1311;47.966;7.958;2023-06-22T13:31:39;8.80;;;6.00;;
2602;SDS011;1311;47.966;7.958;2023-06-22T13:34:06;12.70;;;5.90;;
2602;SDS011;1311;47.966;7.958;2023-06-22T13:36:32;12.13;;;5.40;;
2602;SDS011;1311;47.966;7.958;2023-06-22T13:38:59;11.67;;;6.00;;
2602;SDS011;1311;47.966;7.958;2023-06-22T13:41:26;9.30;;;5.47;;
2602;SDS011;1311;47.966;7.958;2023-06-22T13:43:53;10.53;;;5.87;;
2602;SDS011;1311;47.966;7.958;2023-06-22T13:46:19;17.13;;;6.60;;
2602;SDS011;1311;47.966;7.958;2023-06-22T13:48:47;10.90;;;5.50;;
2602;SDS011;1311;47.966;7.958;2023-06-22T13:51:14;9.40;;;6.43;;
2602;SDS011;1311;47.966;7.958;2023-06-22T13:53:41;10.30;;;6.13;;
2602;SDS011;1311;47.966;7.958;2023-06-22T13:56:08;9.83;;;6.10;;
2602;SDS011;1311;47.966;7.958;2023-06-22T13:58:34;16.63;;;6.40;;
2602;SDS011;1311;47.966;7.958;2023-06-22T14:01:01;14.27;;;6.30;;
2602;SDS011;1311;47.966;7.958;2023-06-22T14:03:28;11.60;;;6.77;;
2602;SDS011;1311;47.966;7.958;2023-06-22T14:05:56;11.60;;;6.50;;
2602;SDS011;1311;47.966;7.958;2023-06-22T14:08:23;15.40;;;6.40;;
2602;SDS011;1311;47.966;7.958;2023-06-22T14:10:50;21.57;;;6.97;;
2602;SDS011;1311;47.966;7.958;2023-06-22T14:13:18;9.63;;;6.30;;
2602;SDS011;1311;47.966;7.958;2023-06-22T14:15:45;12.10;;;6.87;;
2602;SDS011;1311;47.966;7.958;2023-06-22T14:18:13;12.17;;;6.90;;
2602;SDS011;1311;47.966;7.958;2023-06-22T14:20:40;9.80;;;6.60;;
2602;SDS011;1311;47.966;7.958;2023-06-22T14:23:08;10.97;;;6.57;;
2602;SDS011;1311;47.966;7.958;2023-06-22T14:25:35;12.50;;;6.57;;
2602;SDS011;1311;47.966;7.958;2023-06-22T14:28:02;11.00;;;6.57;;
2602;SDS011;1311;47.966;7.958;2023-06-22T14:30:28;14.17;;;6.43;;
2602;SDS011;1311;47.966;7.958;2023-06-22T14:32:55;15.03;;;6.90;;
2602;SDS011;1311;47.966;7.958;2023-06-22T14:35:22;10.03;;;6.80;;
2602;SDS011;1311;47.966;7.958;2023-06-22T14:37:49;13.50;;;7.03;;
2602;SDS011;1311;47.966;7.958;2023-06-22T14:40:17;14.70;;;7.10;;
2602;SDS011;1311;47.966;7.958;2023-06-22T14:42:44;9.37;;;6.27;;
2602;SDS011;1311;47.966;7.958;2023-06-22T14:45:10;13.77;;;6.70;;
2602;SDS011;1311;47.966;7.958;2023-06-22T14:47:38;7.93;;;5.60;;
2602;SDS011;1311;47.966;7.958;2023-06-22T14:50:05;12.70;;;6.83;;
2602;SDS011;1311;47.966;7.958;2023-06-22T14:52:32;10.90;;;5.87;;
2602;SDS011;1311;47.966;7.958;2023-06-22T14:54:59;10.60;;;6.57;;
2602;SDS011;1311;47.966;7.958;2023-06-22T14:57:27;9.20;;;5.23;;
2602;SDS011;1311;47.966;7.958;2023-06-22T14:59:54;8.67;;;5.50;;
2602;SDS011;1311;47.966;7.958;2023-06-22T15:02:20;7.87;;;6.87;;
2602;SDS011;1311;47.966;7.958;2023-06-22T15:04:47;10.57;;;6.30;;
2602;SDS011;1311;47.966;7.958;2023-06-22T15:07:14;11.53;;;6.33;;
2602;SDS011;1311;47.966;7.958;2023-06-22T15:09:41;13.30;;;6.00;;